Hialeah Gardens, Florida
Current Conditions -  °F | °C
As of 10:53 PM on Saturday 25 Oct 2014 (Local Time) from KMIA Reporting Station
Clear Clear  
Wind Chill: 74°   Ceiling: Unl
Heat Index: 74°   Visibility: 10mi
Dew Point: 63°   Wind: 0mph
Humidity: 68%   Direction: NA
Pressure: 29.95"   Gusts: NA
Location:  25.8324°N, 80.2789°W
Report Text: KMIA 260253Z 00000KT 10SM CLR 23/17 A2995 RMK AO2 SLP142 T02330172 51010
Loading
Personal Weather Stations






























Interactive Weather Map
Tropical Storm Tracking
New forecast layout! Learn more

10-Day Weather Forecast

Advertisements
Track Severe Weather on mobile